PWSweather.com
Personal Weather Stations
Station Observations
KPAAUBUR15
Lake Wynonah, Auburn, PA 17922

Lake WynonahAuburn, PA 17922

Lat: 40.582723, Lon: -76.193106

Elevation: 724

Station Type: Davis Vantage Pro2

http://WynonahWeather.com

Latest ConditionsUpdated 11:25:00 PM EDT Friday, Oct 18, 2019
Currently Today's Max Today's Min Today's Average
Temperature 40.4°F4.7°C 57.7°F14.3°C 40.4°F4.7°C 50.1°F10.1°C
Dew Point 37.4°F3.0°C 42.9°F6.1°C 37.4°F3.0°C 41.1°F5.1°C
Winds Calm Calm 11.5 mph -18.5 kmh - - 2.9 mph 4.7 kmh
Wind Gusts -- 19.6 mph31.5 kmh - -
Humidity 89% 89% 54% 72%
Pressure 30.04 in1017.3 mb 30.05 in1017.6 mb 29.73 in1006.8 mb -
Hour Temp Dew Point Humidity Winds Wind Gusts Pressure Precip Precip Rate Daily Precip Total
11:25 PM 40.4°F4.7°C 37.4°F3.0°C 89% Calm Calm -- 30.04 in1017.3 mb - 0.00 in0.0 mm 0.00 in0.0 mm
11:20 PM 40.5°F4.7°C 37.5°F3.1°C 89% Calm Calm -- 30.05 in1017.6 mb - 0.00 in0.0 mm 0.00 in0.0 mm
11:15 PM 40.5°F4.7°C 37.5°F3.1°C 89% Calm Calm -- 30.05 in1017.6 mb - 0.00 in0.0 mm 0.00 in0.0 mm
11:10 PM 40.6°F4.8°C 37.6°F3.1°C 89% Calm Calm -- 30.04 in1017.3 mb - 0.00 in0.0 mm 0.00 in0.0 mm
11:05 PM 40.7°F4.8°C 37.4°F3.0°C 88% Calm Calm -- 30.05 in1017.6 mb - 0.00 in0.0 mm 0.00 in0.0 mm
11:00 PM 40.9°F4.9°C 37.6°F3.1°C 88% Calm Calm -- 30.04 in1017.3 mb - 0.00 in0.0 mm 0.00 in0.0 mm
10:55 PM 41.0°F5.0°C 37.8°F3.2°C 88% Calm Calm -- 30.04 in1017.3 mb - 0.00 in0.0 mm 0.00 in0.0 mm
10:50 PM 41.1°F5.1°C 37.5°F3.1°C 87% Calm Calm -- 30.03 in1016.9 mb - 0.00 in0.0 mm 0.00 in0.0 mm
10:45 PM 41.2°F5.1°C 37.4°F3.0°C 86% Calm Calm -- 30.04 in1017.3 mb - 0.00 in0.0 mm 0.00 in0.0 mm
10:40 PM 41.4°F5.2°C 37.5°F3.1°C 86% Calm Calm -- 30.03 in1016.9 mb - 0.00 in0.0 mm 0.00 in0.0 mm
10:35 PM 41.5°F5.3°C 37.6°F3.1°C 86% Calm Calm -- 30.04 in1017.3 mb - 0.00 in0.0 mm 0.00 in0.0 mm
10:30 PM 41.7°F5.4°C 37.5°F3.1°C 85% Calm Calm -- 30.03 in1016.9 mb - 0.00 in0.0 mm 0.00 in0.0 mm
10:25 PM 42.0°F5.6°C 37.8°F3.2°C 85% Calm Calm -- 30.03 in1016.9 mb - 0.00 in0.0 mm 0.00 in0.0 mm
10:20 PM 42.2°F5.7°C 37.7°F3.2°C 84% Calm Calm -- 30.03 in1016.9 mb - 0.00 in0.0 mm 0.00 in0.0 mm
10:15 PM 42.4°F5.8°C 37.9°F3.3°C 84% Calm Calm -- 30.03 in1016.9 mb - 0.00 in0.0 mm 0.00 in0.0 mm
10:10 PM 42.4°F5.8°C 37.9°F3.3°C 84% Calm Calm -- 30.03 in1016.9 mb - 0.00 in0.0 mm 0.00 in0.0 mm
10:05 PM 42.5°F5.8°C 38.0°F3.3°C 84% Calm Calm -- 30.03 in1016.9 mb - 0.00 in0.0 mm 0.00 in0.0 mm
10:00 PM 42.6°F5.9°C 38.1°F3.4°C 84% Calm Calm -- 30.03 in1016.9 mb - 0.00 in0.0 mm 0.00 in0.0 mm
09:55 PM 42.6°F5.9°C 38.1°F3.4°C 84% Calm Calm -- 30.02 in1016.6 mb - 0.00 in0.0 mm 0.00 in0.0 mm
09:50 PM 42.5°F5.8°C 38.0°F3.3°C 84% Calm Calm -- 30.02 in1016.6 mb - 0.00 in0.0 mm 0.00 in0.0 mm
09:45 PM 42.6°F5.9°C 38.1°F3.4°C 84% Calm Calm -- 30.02 in1016.6 mb - 0.00 in0.0 mm 0.00 in0.0 mm
09:40 PM 42.7°F5.9°C 37.9°F3.3°C 83% Calm Calm -- 30.01 in1016.3 mb - 0.00 in0.0 mm 0.00 in0.0 mm
09:35 PM 42.9°F6.1°C 38.1°F3.4°C 83% Calm Calm -- 30.01 in1016.3 mb - 0.00 in0.0 mm 0.00 in0.0 mm
09:30 PM 43.2°F6.2°C 38.4°F3.6°C 83% Calm Calm -- 30.01 in1016.3 mb - 0.00 in0.0 mm 0.00 in0.0 mm
09:25 PM 43.3°F6.3°C 38.2°F3.4°C 82% Calm Calm -- 30.01 in1016.3 mb - 0.00 in0.0 mm 0.00 in0.0 mm
09:20 PM 43.5°F6.4°C 38.4°F3.6°C 82% Calm Calm -- 30.00 in1015.9 mb - 0.00 in0.0 mm 0.00 in0.0 mm
09:15 PM 43.7°F6.5°C 38.3°F3.5°C 81% Calm Calm -- 30.00 in1015.9 mb - 0.00 in0.0 mm 0.00 in0.0 mm
09:10 PM 43.9°F6.6°C 38.4°F3.6°C 81% Calm Calm -- 30.00 in1015.9 mb - 0.00 in0.0 mm 0.00 in0.0 mm
09:05 PM 44.2°F6.8°C 38.8°F3.8°C 81% Calm Calm -- 30.00 in1015.9 mb - 0.00 in0.0 mm 0.00 in0.0 mm
09:00 PM 44.5°F6.9°C 38.7°F3.7°C 80% Calm Calm -- 30.00 in1015.9 mb - 0.00 in0.0 mm 0.00 in0.0 mm
08:55 PM 44.9°F7.2°C 38.8°F3.8°C 79% Calm Calm -- 30.00 in1015.9 mb - 0.00 in0.0 mm 0.00 in0.0 mm
08:50 PM 45.1°F7.3°C 38.9°F3.8°C 79% Calm Calm -- 30.00 in1015.9 mb - 0.00 in0.0 mm 0.00 in0.0 mm
08:45 PM 45.3°F7.4°C 38.8°F3.8°C 78% Calm Calm -- 30.00 in1015.9 mb - 0.00 in0.0 mm 0.00 in0.0 mm
08:40 PM 45.6°F7.6°C 38.8°F3.8°C 77% Calm Calm -- 29.99 in1015.6 mb - 0.00 in0.0 mm 0.00 in0.0 mm
08:35 PM 46.0°F7.8°C 39.2°F4.0°C 77% Calm Calm -- 29.98 in1015.2 mb - 0.00 in0.0 mm 0.00 in0.0 mm
08:30 PM 46.3°F7.9°C 39.1°F3.9°C 76% Calm Calm -- 29.98 in1015.2 mb - 0.00 in0.0 mm 0.00 in0.0 mm
08:25 PM 46.6°F8.1°C 39.1°F3.9°C 75% Calm Calm -- 29.98 in1015.2 mb - 0.00 in0.0 mm 0.00 in0.0 mm
08:20 PM 47.0°F8.3°C 39.5°F4.2°C 75% Calm Calm -- 29.98 in1015.2 mb - 0.00 in0.0 mm 0.00 in0.0 mm
08:15 PM 47.4°F8.6°C 39.5°F4.2°C 74% Calm Calm -- 29.98 in1015.2 mb - 0.00 in0.0 mm 0.00 in0.0 mm
08:10 PM 47.8°F8.8°C 39.2°F4.0°C 72% Calm Calm -- 29.98 in1015.2 mb - 0.00 in0.0 mm 0.00 in0.0 mm
08:05 PM 48.3°F9.1°C 39.7°F4.3°C 72% Calm Calm -- 29.98 in1015.2 mb - 0.00 in0.0 mm 0.00 in0.0 mm
08:00 PM 48.9°F9.4°C 39.9°F4.4°C 71% Calm Calm -- 29.97 in1014.9 mb - 0.00 in0.0 mm 0.00 in0.0 mm
07:55 PM 49.4°F9.7°C 40.0°F4.4°C 70% Calm Calm -- 29.97 in1014.9 mb - 0.00 in0.0 mm 0.00 in0.0 mm
07:50 PM 49.9°F9.9°C 39.7°F4.3°C 68% Calm Calm -- 29.97 in1014.9 mb - 0.00 in0.0 mm 0.00 in0.0 mm
07:45 PM 50.4°F10.2°C 39.8°F4.3°C 67% Calm Calm -- 29.97 in1014.9 mb - 0.00 in0.0 mm 0.00 in0.0 mm
07:40 PM 50.9°F10.5°C 39.9°F4.4°C 66% Calm Calm -- 29.97 in1014.9 mb - 0.00 in0.0 mm 0.00 in0.0 mm
07:35 PM 51.3°F10.7°C 40.7°F4.8°C 67% Calm Calm -- 29.97 in1014.9 mb - 0.00 in0.0 mm 0.00 in0.0 mm
07:30 PM 51.5°F10.8°C 39.3°F4.1°C 63% Calm Calm -- 29.96 in1014.6 mb - 0.00 in0.0 mm 0.00 in0.0 mm
07:25 PM 51.9°F11.1°C 39.7°F4.3°C 63% Calm Calm -- 29.96 in1014.6 mb - 0.00 in0.0 mm 0.00 in0.0 mm
07:20 PM 52.2°F11.2°C 39.6°F4.2°C 62% Calm Calm -- 29.96 in1014.6 mb - 0.00 in0.0 mm 0.00 in0.0 mm
07:15 PM 52.5°F11.4°C 39.8°F4.3°C 62% Calm Calm -- 29.96 in1014.6 mb - 0.00 in0.0 mm 0.00 in0.0 mm
07:10 PM 52.8°F11.6°C 39.7°F4.3°C 61% Calm Calm -- 29.96 in1014.6 mb - 0.00 in0.0 mm 0.00 in0.0 mm
07:05 PM 52.9°F11.6°C 39.8°F4.3°C 61% Calm Calm -- 29.96 in1014.6 mb - 0.00 in0.0 mm 0.00 in0.0 mm
07:00 PM 53.2°F11.8°C 40.1°F4.5°C 61% Calm Calm -- 29.95 in1014.2 mb - 0.00 in0.0 mm 0.00 in0.0 mm
06:55 PM 53.4°F11.9°C 40.3°F4.6°C 61% Calm Calm -- 29.95 in1014.2 mb - 0.00 in0.0 mm 0.00 in0.0 mm
06:50 PM 53.4°F11.9°C 40.3°F4.6°C 61% 4.6 mph NW7.4 kmh NW 10.4 mph16.7 kmh 29.95 in1014.2 mb - 0.00 in0.0 mm 0.00 in0.0 mm
06:45 PM 53.3°F11.8°C 40.2°F4.6°C 61% Calm Calm 9.2 mph14.8 kmh 29.95 in1014.2 mb - 0.00 in0.0 mm 0.00 in0.0 mm
06:40 PM 53.6°F12.0°C 40.0°F4.4°C 60% 1.2 mph NW1.9 kmh NW 4.6 mph7.4 kmh 29.95 in1014.2 mb - 0.00 in0.0 mm 0.00 in0.0 mm
06:35 PM 53.7°F12.1°C 40.1°F4.5°C 60% 1.2 mph NW1.9 kmh NW -- 29.95 in1014.2 mb - 0.00 in0.0 mm 0.00 in0.0 mm
06:30 PM 53.9°F12.2°C 40.4°F4.7°C 60% Calm Calm 3.5 mph5.6 kmh 29.95 in1014.2 mb - 0.00 in0.0 mm 0.00 in0.0 mm
06:25 PM 54.2°F12.3°C 40.1°F4.5°C 59% Calm Calm -- 29.94 in1013.9 mb - 0.00 in0.0 mm 0.00 in0.0 mm
06:20 PM 54.4°F12.4°C 39.9°F4.4°C 58% Calm Calm -- 29.94 in1013.9 mb - 0.00 in0.0 mm 0.00 in0.0 mm
06:15 PM 54.6°F12.6°C 40.6°F4.8°C 59% 1.2 mph WNW1.9 kmh WNW 2.3 mph3.7 kmh 29.94 in1013.9 mb - 0.00 in0.0 mm 0.00 in0.0 mm
06:10 PM 54.9°F12.7°C 39.9°F4.4°C 57% Calm Calm -- 29.94 in1013.9 mb - 0.00 in0.0 mm 0.00 in0.0 mm
06:05 PM 55.1°F12.8°C 40.1°F4.5°C 57% Calm Calm 1.2 mph1.9 kmh 29.94 in1013.9 mb - 0.00 in0.0 mm 0.00 in0.0 mm
06:00 PM 55.3°F12.9°C 40.3°F4.6°C 57% 2.3 mph NW3.7 kmh NW 4.6 mph7.4 kmh 29.93 in1013.5 mb - 0.00 in0.0 mm 0.00 in0.0 mm
05:55 PM 55.5°F13.1°C 41.0°F5.0°C 58% 2.3 mph NNW3.7 kmh NNW 2.3 mph3.7 kmh 29.93 in1013.5 mb - 0.00 in0.0 mm 0.00 in0.0 mm
05:50 PM 55.6°F13.1°C 41.1°F5.1°C 58% 2.3 mph NW3.7 kmh NW 5.8 mph9.3 kmh 29.93 in1013.5 mb - 0.00 in0.0 mm 0.00 in0.0 mm
05:45 PM 55.8°F13.2°C 41.7°F5.4°C 59% Calm Calm -- 29.93 in1013.5 mb - 0.00 in0.0 mm 0.00 in0.0 mm
05:40 PM 55.9°F13.3°C 41.3°F5.2°C 58% 2.3 mph NW3.7 kmh NW 3.5 mph5.6 kmh 29.93 in1013.5 mb - 0.00 in0.0 mm 0.00 in0.0 mm
05:35 PM 56.0°F13.3°C 41.0°F5.0°C 57% 3.5 mph NNW5.6 kmh NNW 4.6 mph7.4 kmh 29.92 in1013.2 mb - 0.00 in0.0 mm 0.00 in0.0 mm
05:30 PM 56.1°F13.4°C 41.1°F5.1°C 57% 2.3 mph WNW3.7 kmh WNW -- 29.92 in1013.2 mb - 0.00 in0.0 mm 0.00 in0.0 mm
05:25 PM 56.3°F13.5°C 40.8°F4.9°C 56% 1.2 mph N1.9 kmh N 1.2 mph1.9 kmh 29.92 in1013.2 mb - 0.00 in0.0 mm 0.00 in0.0 mm
05:20 PM 56.4°F13.6°C 40.9°F4.9°C 56% 8.1 mph NNW13.0 kmh NNW 12.7 mph20.4 kmh 29.92 in1013.2 mb - 0.00 in0.0 mm 0.00 in0.0 mm
05:15 PM 56.5°F13.6°C 41.0°F5.0°C 56% 2.3 mph N3.7 kmh N 4.6 mph7.4 kmh 29.92 in1013.2 mb - 0.00 in0.0 mm 0.00 in0.0 mm
05:10 PM 56.7°F13.7°C 42.1°F5.6°C 58% 2.3 mph N3.7 kmh N 6.9 mph11.1 kmh 29.92 in1013.2 mb - 0.00 in0.0 mm 0.00 in0.0 mm
05:05 PM 56.8°F13.8°C 41.3°F5.2°C 56% 3.5 mph NW5.6 kmh NW 6.9 mph11.1 kmh 29.92 in1013.2 mb - 0.00 in0.0 mm 0.00 in0.0 mm
05:00 PM 56.9°F13.8°C 41.8°F5.4°C 57% 3.5 mph N5.6 kmh N 6.9 mph11.1 kmh 29.92 in1013.2 mb - 0.00 in0.0 mm 0.00 in0.0 mm
04:55 PM 57.0°F13.9°C 41.4°F5.2°C 56% 2.3 mph NW3.7 kmh NW 8.1 mph13.0 kmh 29.92 in1013.2 mb - 0.00 in0.0 mm 0.00 in0.0 mm
04:50 PM 57.0°F13.9°C 41.9°F5.5°C 57% 2.3 mph NW3.7 kmh NW 9.2 mph14.8 kmh 29.91 in1012.9 mb - 0.00 in0.0 mm 0.00 in0.0 mm
04:45 PM 56.9°F13.8°C 41.9°F5.5°C 57% 5.8 mph N9.3 kmh N 6.9 mph11.1 kmh 29.91 in1012.9 mb - 0.00 in0.0 mm 0.00 in0.0 mm
04:40 PM 56.9°F13.8°C 41.4°F5.2°C 56% 4.6 mph NNW7.4 kmh NNW 8.1 mph13.0 kmh 29.91 in1012.9 mb - 0.00 in0.0 mm 0.00 in0.0 mm
04:35 PM 56.9°F13.8°C 41.4°F5.2°C 56% 1.2 mph NNW1.9 kmh NNW 4.6 mph7.4 kmh 29.91 in1012.9 mb - 0.00 in0.0 mm 0.00 in0.0 mm
04:30 PM 57.0°F13.9°C 41.0°F5.0°C 55% 4.6 mph NNW7.4 kmh NNW 9.2 mph14.8 kmh 29.91 in1012.9 mb - 0.00 in0.0 mm 0.00 in0.0 mm
04:25 PM 56.9°F13.8°C 40.9°F4.9°C 55% 3.5 mph NNW5.6 kmh NNW 6.9 mph11.1 kmh 29.91 in1012.9 mb - 0.00 in0.0 mm 0.00 in0.0 mm
04:20 PM 57.0°F13.9°C 41.0°F5.0°C 55% 3.5 mph NW5.6 kmh NW 9.2 mph14.8 kmh 29.91 in1012.9 mb - 0.00 in0.0 mm 0.00 in0.0 mm
04:15 PM 57.0°F13.9°C 40.5°F4.7°C 54% 9.2 mph N14.8 kmh N 11.5 mph18.5 kmh 29.91 in1012.9 mb - 0.00 in0.0 mm 0.00 in0.0 mm
04:10 PM 57.1°F13.9°C 41.1°F5.1°C 55% 6.9 mph N11.1 kmh N 10.4 mph16.7 kmh 29.91 in1012.9 mb - 0.00 in0.0 mm 0.00 in0.0 mm
04:05 PM 57.2°F14.0°C 41.7°F5.4°C 56% 6.9 mph NW11.1 kmh NW 12.7 mph20.4 kmh 29.91 in1012.9 mb - 0.00 in0.0 mm 0.00 in0.0 mm
04:00 PM 57.3°F14.1°C 41.7°F5.4°C 56% 4.6 mph N7.4 kmh N 8.1 mph13.0 kmh 29.91 in1012.9 mb - 0.00 in0.0 mm 0.00 in0.0 mm
03:55 PM 57.4°F14.1°C 41.4°F5.2°C 55% 5.8 mph N9.3 kmh N 9.2 mph14.8 kmh 29.91 in1012.9 mb - 0.00 in0.0 mm 0.00 in0.0 mm
03:50 PM 57.5°F14.2°C 41.5°F5.3°C 55% 4.6 mph NNW7.4 kmh NNW 10.4 mph16.7 kmh 29.91 in1012.9 mb - 0.00 in0.0 mm 0.00 in0.0 mm
03:45 PM 57.7°F14.3°C 42.1°F5.6°C 56% 2.3 mph N3.7 kmh N 6.9 mph11.1 kmh 29.91 in1012.9 mb - 0.00 in0.0 mm 0.00 in0.0 mm
03:40 PM 57.7°F14.3°C 41.6°F5.3°C 55% 6.9 mph NW11.1 kmh NW 12.7 mph20.4 kmh 29.91 in1012.9 mb - 0.00 in0.0 mm 0.00 in0.0 mm
03:35 PM 57.6°F14.2°C 42.5°F5.8°C 57% 4.6 mph NNW7.4 kmh NNW 10.4 mph16.7 kmh 29.91 in1012.9 mb - 0.00 in0.0 mm 0.00 in0.0 mm
03:30 PM 57.5°F14.2°C 41.9°F5.5°C 56% 5.8 mph N9.3 kmh N 8.1 mph13.0 kmh 29.91 in1012.9 mb - 0.00 in0.0 mm 0.00 in0.0 mm
03:25 PM 57.4°F14.1°C 42.3°F5.7°C 57% 6.9 mph NW11.1 kmh NW 10.4 mph16.7 kmh 29.91 in1012.9 mb - 0.00 in0.0 mm 0.00 in0.0 mm
03:20 PM 57.3°F14.1°C 41.7°F5.4°C 56% 5.8 mph WNW9.3 kmh WNW 13.8 mph22.2 kmh 29.91 in1012.9 mb - 0.00 in0.0 mm 0.00 in0.0 mm
03:15 PM 57.1°F13.9°C 41.5°F5.3°C 56% 5.8 mph N9.3 kmh N 10.4 mph16.7 kmh 29.91 in1012.9 mb - 0.00 in0.0 mm 0.00 in0.0 mm
03:10 PM 57.0°F13.9°C 41.9°F5.5°C 57% 5.8 mph NW9.3 kmh NW 16.1 mph25.9 kmh 29.91 in1012.9 mb - 0.00 in0.0 mm 0.00 in0.0 mm
03:05 PM 56.7°F13.7°C 42.5°F5.8°C 59% 6.9 mph NW11.1 kmh NW 13.8 mph22.2 kmh 29.90 in1012.5 mb - 0.00 in0.0 mm 0.00 in0.0 mm
03:00 PM 56.4°F13.6°C 41.3°F5.2°C 57% 6.9 mph N11.1 kmh N 15.0 mph24.1 kmh 29.91 in1012.9 mb - 0.00 in0.0 mm 0.00 in0.0 mm
02:55 PM 56.5°F13.6°C 41.0°F5.0°C 56% 9.2 mph N14.8 kmh N 13.8 mph22.2 kmh 29.91 in1012.9 mb - 0.00 in0.0 mm 0.00 in0.0 mm
02:50 PM 56.3°F13.5°C 41.7°F5.4°C 58% 2.3 mph NW3.7 kmh NW 11.5 mph18.5 kmh 29.91 in1012.9 mb - 0.00 in0.0 mm 0.00 in0.0 mm
02:45 PM 56.3°F13.5°C 41.2°F5.1°C 57% 6.9 mph NNW11.1 kmh NNW 11.5 mph18.5 kmh 29.91 in1012.9 mb - 0.00 in0.0 mm 0.00 in0.0 mm
02:40 PM 56.4°F13.6°C 41.8°F5.4°C 58% 8.1 mph N13.0 kmh N 11.5 mph18.5 kmh 29.91 in1012.9 mb - 0.00 in0.0 mm 0.00 in0.0 mm
02:35 PM 56.3°F13.5°C 42.1°F5.6°C 59% 2.3 mph N3.7 kmh N 4.6 mph7.4 kmh 29.91 in1012.9 mb - 0.00 in0.0 mm 0.00 in0.0 mm
02:30 PM 56.2°F13.4°C 42.5°F5.8°C 60% 9.2 mph NNW14.8 kmh NNW 16.1 mph25.9 kmh 29.91 in1012.9 mb - 0.00 in0.0 mm 0.00 in0.0 mm
02:25 PM 56.1°F13.4°C 42.4°F5.8°C 60% 6.9 mph NW11.1 kmh NW 8.1 mph13.0 kmh 29.91 in1012.9 mb - 0.00 in0.0 mm 0.00 in0.0 mm
02:20 PM 55.9°F13.3°C 42.2°F5.7°C 60% 8.1 mph NW13.0 kmh NW 10.4 mph16.7 kmh 29.91 in1012.9 mb - 0.00 in0.0 mm 0.00 in0.0 mm
02:15 PM 55.7°F13.2°C 41.6°F5.3°C 59% 6.9 mph NNW11.1 kmh NNW 11.5 mph18.5 kmh 29.91 in1012.9 mb - 0.00 in0.0 mm 0.00 in0.0 mm
02:10 PM 55.5°F13.1°C 42.3°F5.7°C 61% 3.5 mph NNW5.6 kmh NNW 12.7 mph20.4 kmh 29.91 in1012.9 mb - 0.00 in0.0 mm 0.00 in0.0 mm
02:05 PM 55.4°F13.0°C 41.7°F5.4°C 60% 9.2 mph N14.8 kmh N 19.6 mph31.5 kmh 29.91 in1012.9 mb - 0.00 in0.0 mm 0.00 in0.0 mm
02:00 PM 55.3°F12.9°C 42.1°F5.6°C 61% 4.6 mph NNW7.4 kmh NNW 13.8 mph22.2 kmh 29.91 in1012.9 mb - 0.00 in0.0 mm 0.00 in0.0 mm
01:55 PM 55.2°F12.9°C 41.5°F5.3°C 60% 4.6 mph NW7.4 kmh NW 11.5 mph18.5 kmh 29.91 in1012.9 mb - 0.00 in0.0 mm 0.00 in0.0 mm
01:50 PM 55.2°F12.9°C 41.5°F5.3°C 60% 9.2 mph NW14.8 kmh NW 15.0 mph24.1 kmh 29.91 in1012.9 mb - 0.00 in0.0 mm 0.00 in0.0 mm
01:45 PM 54.9°F12.7°C 42.2°F5.7°C 62% 8.1 mph NW13.0 kmh NW 11.5 mph18.5 kmh 29.91 in1012.9 mb - 0.00 in0.0 mm 0.00 in0.0 mm
01:40 PM 54.9°F12.7°C 42.1°F5.6°C 62% 9.2 mph NNW14.8 kmh NNW 18.4 mph29.6 kmh 29.91 in1012.9 mb - 0.00 in0.0 mm 0.00 in0.0 mm
01:35 PM 54.7°F12.6°C 41.9°F5.5°C 62% 8.1 mph NW13.0 kmh NW 11.5 mph18.5 kmh 29.91 in1012.9 mb - 0.00 in0.0 mm 0.00 in0.0 mm
01:30 PM 54.6°F12.6°C 41.8°F5.4°C 62% 4.6 mph NW7.4 kmh NW 8.1 mph13.0 kmh 29.91 in1012.9 mb - 0.00 in0.0 mm 0.00 in0.0 mm
01:25 PM 54.3°F12.4°C 41.9°F5.5°C 63% 5.8 mph NW9.3 kmh NW 10.4 mph16.7 kmh 29.91 in1012.9 mb - 0.00 in0.0 mm 0.00 in0.0 mm
01:20 PM 54.1°F12.3°C 42.2°F5.7°C 64% 5.8 mph NW9.3 kmh NW 9.2 mph14.8 kmh 29.91 in1012.9 mb - 0.00 in0.0 mm 0.00 in0.0 mm
01:15 PM 54.0°F12.2°C 42.1°F5.6°C 64% 9.2 mph NW14.8 kmh NW 13.8 mph22.2 kmh 29.91 in1012.9 mb - 0.00 in0.0 mm 0.00 in0.0 mm
01:10 PM 54.0°F12.2°C 42.1°F5.6°C 64% 8.1 mph NW13.0 kmh NW 15.0 mph24.1 kmh 29.91 in1012.9 mb - 0.00 in0.0 mm 0.00 in0.0 mm
01:05 PM 54.0°F12.2°C 42.1°F5.6°C 64% 8.1 mph NNW13.0 kmh NNW 19.6 mph31.5 kmh 29.91 in1012.9 mb - 0.00 in0.0 mm 0.00 in0.0 mm
01:00 PM 54.2°F12.3°C 42.3°F5.7°C 64% 8.1 mph NNW13.0 kmh NNW 15.0 mph24.1 kmh 29.91 in1012.9 mb - 0.00 in0.0 mm 0.00 in0.0 mm
12:55 PM 54.4°F12.4°C 42.5°F5.8°C 64% 4.6 mph WNW7.4 kmh WNW 15.0 mph24.1 kmh 29.91 in1012.9 mb - 0.00 in0.0 mm 0.00 in0.0 mm
12:50 PM 54.2°F12.3°C 42.3°F5.7°C 64% 8.1 mph NNW13.0 kmh NNW 10.4 mph16.7 kmh 29.91 in1012.9 mb - 0.00 in0.0 mm 0.00 in0.0 mm
12:45 PM 53.9°F12.2°C 42.8°F6.0°C 66% 4.6 mph W7.4 kmh W 5.8 mph9.3 kmh 29.91 in1012.9 mb - 0.00 in0.0 mm 0.00 in0.0 mm
12:40 PM 53.8°F12.1°C 41.9°F5.5°C 64% 6.9 mph NW11.1 kmh NW 10.4 mph16.7 kmh 29.91 in1012.9 mb - 0.00 in0.0 mm 0.00 in0.0 mm
12:35 PM 53.9°F12.2°C 42.4°F5.8°C 65% 2.3 mph WNW3.7 kmh WNW 6.9 mph11.1 kmh 29.91 in1012.9 mb - 0.00 in0.0 mm 0.00 in0.0 mm
12:30 PM 54.0°F12.2°C 42.5°F5.8°C 65% 9.2 mph N14.8 kmh N 16.1 mph25.9 kmh 29.91 in1012.9 mb - 0.00 in0.0 mm 0.00 in0.0 mm
12:25 PM 53.6°F12.0°C 42.9°F6.1°C 67% 5.8 mph NW9.3 kmh NW 8.1 mph13.0 kmh 29.91 in1012.9 mb - 0.00 in0.0 mm 0.00 in0.0 mm
12:20 PM 52.8°F11.6°C 42.2°F5.7°C 67% 5.8 mph NNW9.3 kmh NNW 8.1 mph13.0 kmh 29.91 in1012.9 mb - 0.00 in0.0 mm 0.00 in0.0 mm
12:15 PM 52.6°F11.4°C 41.6°F5.3°C 66% 5.8 mph NNW9.3 kmh NNW 5.8 mph9.3 kmh 29.91 in1012.9 mb - 0.00 in0.0 mm 0.00 in0.0 mm
12:10 PM 52.6°F11.4°C 41.9°F5.5°C 67% 6.9 mph NNW11.1 kmh NNW 11.5 mph18.5 kmh 29.91 in1012.9 mb - 0.00 in0.0 mm 0.00 in0.0 mm
12:05 PM 52.0°F11.1°C 41.7°F5.4°C 68% 3.5 mph NW5.6 kmh NW 11.5 mph18.5 kmh 29.91 in1012.9 mb - 0.00 in0.0 mm 0.00 in0.0 mm
12:00 PM 51.6°F10.9°C 41.4°F5.2°C 68% 6.9 mph N11.1 kmh N 11.5 mph18.5 kmh 29.91 in1012.9 mb - 0.00 in0.0 mm 0.00 in0.0 mm
11:55 AM 51.3°F10.7°C 41.1°F5.1°C 68% 5.8 mph NNW9.3 kmh NNW 8.1 mph13.0 kmh 29.91 in1012.9 mb - 0.00 in0.0 mm 0.00 in0.0 mm
11:50 AM 51.2°F10.7°C 41.0°F5.0°C 68% 11.5 mph N18.5 kmh N 16.1 mph25.9 kmh 29.91 in1012.9 mb - 0.00 in0.0 mm 0.00 in0.0 mm
11:45 AM 51.2°F10.7°C 41.0°F5.0°C 68% 8.1 mph NNW13.0 kmh NNW 10.4 mph16.7 kmh 29.91 in1012.9 mb - 0.00 in0.0 mm 0.00 in0.0 mm
11:40 AM 51.3°F10.7°C 41.1°F5.1°C 68% 9.2 mph NNW14.8 kmh NNW 10.4 mph16.7 kmh 29.90 in1012.5 mb - 0.00 in0.0 mm 0.00 in0.0 mm
11:35 AM 51.4°F10.8°C 41.6°F5.3°C 69% 4.6 mph N7.4 kmh N 5.8 mph9.3 kmh 29.90 in1012.5 mb - 0.00 in0.0 mm 0.00 in0.0 mm
11:30 AM 51.6°F10.9°C 41.4°F5.2°C 68% 8.1 mph N13.0 kmh N 11.5 mph18.5 kmh 29.90 in1012.5 mb - 0.00 in0.0 mm 0.00 in0.0 mm
11:25 AM 51.9°F11.1°C 41.7°F5.4°C 68% 10.4 mph N16.7 kmh N 18.4 mph29.6 kmh 29.90 in1012.5 mb - 0.00 in0.0 mm 0.00 in0.0 mm
11:20 AM 51.9°F11.1°C 42.0°F5.6°C 69% 8.1 mph N13.0 kmh N 10.4 mph16.7 kmh 29.90 in1012.5 mb - 0.00 in0.0 mm 0.00 in0.0 mm
11:15 AM 51.8°F11.0°C 42.3°F5.7°C 70% 5.8 mph N9.3 kmh N 10.4 mph16.7 kmh 29.90 in1012.5 mb - 0.00 in0.0 mm 0.00 in0.0 mm
11:10 AM 51.8°F11.0°C 42.3°F5.7°C 70% 5.8 mph NW9.3 kmh NW 10.4 mph16.7 kmh 29.89 in1012.2 mb - 0.00 in0.0 mm 0.00 in0.0 mm
11:05 AM 51.7°F10.9°C 42.2°F5.7°C 70% 8.1 mph NW13.0 kmh NW 11.5 mph18.5 kmh 29.90 in1012.5 mb - 0.00 in0.0 mm 0.00 in0.0 mm
11:00 AM 51.4°F10.8°C 42.7°F5.9°C 72% 3.5 mph NW5.6 kmh NW 10.4 mph16.7 kmh 29.90 in1012.5 mb - 0.00 in0.0 mm 0.00 in0.0 mm
10:55 AM 51.0°F10.6°C 41.6°F5.3°C 70% 8.1 mph N13.0 kmh N 11.5 mph18.5 kmh 29.90 in1012.5 mb - 0.00 in0.0 mm 0.00 in0.0 mm
10:50 AM 50.9°F10.5°C 41.8°F5.4°C 71% 5.8 mph NNW9.3 kmh NNW 11.5 mph18.5 kmh 29.90 in1012.5 mb - 0.00 in0.0 mm 0.00 in0.0 mm
10:45 AM 50.5°F10.3°C 41.5°F5.3°C 71% 8.1 mph NW13.0 kmh NW 18.4 mph29.6 kmh 29.90 in1012.5 mb - 0.00 in0.0 mm 0.00 in0.0 mm
10:40 AM 50.5°F10.3°C 41.4°F5.2°C 71% 6.9 mph N11.1 kmh N 15.0 mph24.1 kmh 29.90 in1012.5 mb - 0.00 in0.0 mm 0.00 in0.0 mm
10:35 AM 50.4°F10.2°C 41.7°F5.4°C 72% 5.8 mph NNW9.3 kmh NNW 9.2 mph14.8 kmh 29.89 in1012.2 mb - 0.00 in0.0 mm 0.00 in0.0 mm
10:30 AM 50.2°F10.1°C 41.5°F5.3°C 72% 9.2 mph N14.8 kmh N 19.6 mph31.5 kmh 29.89 in1012.2 mb - 0.00 in0.0 mm 0.00 in0.0 mm
10:25 AM 49.8°F9.9°C 41.1°F5.1°C 72% 1.2 mph WNW1.9 kmh WNW 2.3 mph3.7 kmh 29.89 in1012.2 mb - 0.00 in0.0 mm 0.00 in0.0 mm
10:20 AM 50.0°F10.0°C 41.3°F5.2°C 72% 9.2 mph NW14.8 kmh NW 13.8 mph22.2 kmh 29.90 in1012.5 mb - 0.00 in0.0 mm 0.00 in0.0 mm
10:15 AM 49.9°F9.9°C 41.6°F5.3°C 73% 5.8 mph NNW9.3 kmh NNW 11.5 mph18.5 kmh 29.89 in1012.2 mb - 0.00 in0.0 mm 0.00 in0.0 mm
10:10 AM 49.7°F9.8°C 41.4°F5.2°C 73% 5.8 mph WNW9.3 kmh WNW 5.8 mph9.3 kmh 29.89 in1012.2 mb - 0.00 in0.0 mm 0.00 in0.0 mm
10:05 AM 49.6°F9.8°C 41.3°F5.2°C 73% 6.9 mph N11.1 kmh N 11.5 mph18.5 kmh 29.90 in1012.5 mb - 0.00 in0.0 mm 0.00 in0.0 mm
10:00 AM 49.3°F9.6°C 41.4°F5.2°C 74% 4.6 mph NW7.4 kmh NW 10.4 mph16.7 kmh 29.90 in1012.5 mb - 0.00 in0.0 mm 0.00 in0.0 mm
09:55 AM 49.2°F9.6°C 41.3°F5.2°C 74% 8.1 mph NNE13.0 kmh NNE 12.7 mph20.4 kmh 29.90 in1012.5 mb - 0.00 in0.0 mm 0.00 in0.0 mm
09:50 AM 49.2°F9.6°C 41.6°F5.3°C 75% Calm Calm -- 29.90 in1012.5 mb - 0.00 in0.0 mm 0.00 in0.0 mm
09:45 AM 49.1°F9.5°C 41.2°F5.1°C 74% 5.8 mph WNW9.3 kmh WNW 8.1 mph13.0 kmh 29.90 in1012.5 mb - 0.00 in0.0 mm 0.00 in0.0 mm
09:40 AM 49.1°F9.5°C 41.5°F5.3°C 75% 6.9 mph NW11.1 kmh NW 12.7 mph20.4 kmh 29.90 in1012.5 mb - 0.00 in0.0 mm 0.00 in0.0 mm
09:35 AM 49.1°F9.5°C 41.5°F5.3°C 75% 1.2 mph NNE1.9 kmh NNE 4.6 mph7.4 kmh 29.89 in1012.2 mb - 0.00 in0.0 mm 0.00 in0.0 mm
09:30 AM 49.1°F9.5°C 41.5°F5.3°C 75% 4.6 mph NW7.4 kmh NW 9.2 mph14.8 kmh 29.89 in1012.2 mb - 0.00 in0.0 mm 0.00 in0.0 mm
09:25 AM 49.2°F9.6°C 41.3°F5.2°C 74% 6.9 mph N11.1 kmh N 8.1 mph13.0 kmh 29.89 in1012.2 mb - 0.00 in0.0 mm 0.00 in0.0 mm
09:20 AM 49.5°F9.7°C 41.6°F5.3°C 74% 6.9 mph N11.1 kmh N 11.5 mph18.5 kmh 29.89 in1012.2 mb - 0.00 in0.0 mm 0.00 in0.0 mm
09:15 AM 49.6°F9.8°C 41.7°F5.4°C 74% Calm Calm 2.3 mph3.7 kmh 29.89 in1012.2 mb - 0.00 in0.0 mm 0.00 in0.0 mm
09:10 AM 49.7°F9.8°C 41.7°F5.4°C 74% Calm Calm 4.6 mph7.4 kmh 29.89 in1012.2 mb - 0.00 in0.0 mm 0.00 in0.0 mm
09:05 AM 49.8°F9.9°C 41.8°F5.4°C 74% 2.3 mph NNW3.7 kmh NNW 4.6 mph7.4 kmh 29.88 in1011.9 mb - 0.00 in0.0 mm 0.00 in0.0 mm
09:00 AM 49.7°F9.8°C 42.1°F5.6°C 75% 1.2 mph N1.9 kmh N 5.8 mph9.3 kmh 29.88 in1011.9 mb - 0.00 in0.0 mm 0.00 in0.0 mm
08:55 AM 49.4°F9.7°C 41.5°F5.3°C 74% 6.9 mph N11.1 kmh N 8.1 mph13.0 kmh 29.88 in1011.9 mb - 0.00 in0.0 mm 0.00 in0.0 mm
08:50 AM 49.2°F9.6°C 41.3°F5.2°C 74% 4.6 mph WNW7.4 kmh WNW 6.9 mph11.1 kmh 29.88 in1011.9 mb - 0.00 in0.0 mm 0.00 in0.0 mm
08:45 AM 48.9°F9.4°C 41.4°F5.2°C 75% 5.8 mph NW9.3 kmh NW 8.1 mph13.0 kmh 29.88 in1011.9 mb - 0.00 in0.0 mm 0.00 in0.0 mm
08:40 AM 48.6°F9.2°C 41.4°F5.2°C 76% 4.6 mph NNW7.4 kmh NNW 8.1 mph13.0 kmh 29.87 in1011.5 mb - 0.00 in0.0 mm 0.00 in0.0 mm
08:35 AM 48.4°F9.1°C 41.2°F5.1°C 76% 3.5 mph NNW5.6 kmh NNW 6.9 mph11.1 kmh 29.87 in1011.5 mb - 0.00 in0.0 mm 0.00 in0.0 mm
08:30 AM 48.3°F9.1°C 41.1°F5.1°C 76% 2.3 mph NW3.7 kmh NW 4.6 mph7.4 kmh 29.87 in1011.5 mb - 0.00 in0.0 mm 0.00 in0.0 mm
08:25 AM 48.3°F9.1°C 41.1°F5.1°C 76% 2.3 mph WNW3.7 kmh WNW 4.6 mph7.4 kmh 29.86 in1011.2 mb - 0.00 in0.0 mm 0.00 in0.0 mm
08:20 AM 48.4°F9.1°C 41.2°F5.1°C 76% 2.3 mph NW3.7 kmh NW 4.6 mph7.4 kmh 29.86 in1011.2 mb - 0.00 in0.0 mm 0.00 in0.0 mm
08:15 AM 48.4°F9.1°C 41.2°F5.1°C 76% 2.3 mph NNW3.7 kmh NNW 3.5 mph5.6 kmh 29.85 in1010.8 mb - 0.00 in0.0 mm 0.00 in0.0 mm
08:10 AM 48.5°F9.2°C 41.6°F5.3°C 77% 2.3 mph NNW3.7 kmh NNW 4.6 mph7.4 kmh 29.85 in1010.8 mb - 0.00 in0.0 mm 0.00 in0.0 mm
08:05 AM 48.5°F9.2°C 41.6°F5.3°C 77% 1.2 mph NW1.9 kmh NW 3.5 mph5.6 kmh 29.85 in1010.8 mb - 0.00 in0.0 mm 0.00 in0.0 mm
08:00 AM 48.4°F9.1°C 41.5°F5.3°C 77% 2.3 mph NW3.7 kmh NW 9.2 mph14.8 kmh 29.85 in1010.8 mb - 0.00 in0.0 mm 0.00 in0.0 mm
07:55 AM 48.3°F9.1°C 41.5°F5.3°C 77% 4.6 mph NNW7.4 kmh NNW 9.2 mph14.8 kmh 29.85 in1010.8 mb - 0.00 in0.0 mm 0.00 in0.0 mm
07:50 AM 48.3°F9.1°C 41.4°F5.2°C 77% 1.2 mph NW1.9 kmh NW -- 29.84 in1010.5 mb - 0.00 in0.0 mm 0.00 in0.0 mm
07:45 AM 48.3°F9.1°C 41.4°F5.2°C 77% 1.2 mph W1.9 kmh W 4.6 mph7.4 kmh 29.84 in1010.5 mb - 0.00 in0.0 mm 0.00 in0.0 mm
07:40 AM 48.3°F9.1°C 41.4°F5.2°C 77% 4.6 mph NW7.4 kmh NW 6.9 mph11.1 kmh 29.84 in1010.5 mb - 0.00 in0.0 mm 0.00 in0.0 mm
07:35 AM 48.2°F9.0°C 41.7°F5.4°C 78% 5.8 mph NNW9.3 kmh NNW 11.5 mph18.5 kmh 29.84 in1010.5 mb - 0.00 in0.0 mm 0.00 in0.0 mm
07:30 AM 48.2°F9.0°C 41.3°F5.2°C 77% 5.8 mph WNW9.3 kmh WNW 12.7 mph20.4 kmh 29.84 in1010.5 mb - 0.00 in0.0 mm 0.00 in0.0 mm
07:25 AM 48.2°F9.0°C 41.7°F5.4°C 78% 2.3 mph N3.7 kmh N 6.9 mph11.1 kmh 29.84 in1010.5 mb - 0.00 in0.0 mm 0.00 in0.0 mm
07:20 AM 48.2°F9.0°C 41.7°F5.4°C 78% 2.3 mph W3.7 kmh W 10.4 mph16.7 kmh 29.84 in1010.5 mb - 0.00 in0.0 mm 0.00 in0.0 mm
07:15 AM 48.3°F9.1°C 41.7°F5.4°C 78% 4.6 mph NW7.4 kmh NW 10.4 mph16.7 kmh 29.84 in1010.5 mb - 0.00 in0.0 mm 0.00 in0.0 mm
07:10 AM 48.3°F9.1°C 41.4°F5.2°C 77% 4.6 mph NW7.4 kmh NW 5.8 mph9.3 kmh 29.83 in1010.2 mb - 0.00 in0.0 mm 0.00 in0.0 mm
07:05 AM 48.3°F9.1°C 41.4°F5.2°C 77% 5.8 mph NNW9.3 kmh NNW 10.4 mph16.7 kmh 29.83 in1010.2 mb - 0.00 in0.0 mm 0.00 in0.0 mm
07:00 AM 48.3°F9.1°C 41.8°F5.4°C 78% 4.6 mph N7.4 kmh N 8.1 mph13.0 kmh 29.83 in1010.2 mb - 0.00 in0.0 mm 0.00 in0.0 mm
06:55 AM 48.3°F9.1°C 41.8°F5.4°C 78% 5.8 mph NNW9.3 kmh NNW 9.2 mph14.8 kmh 29.83 in1010.2 mb - 0.00 in0.0 mm 0.00 in0.0 mm
06:50 AM 48.3°F9.1°C 41.4°F5.2°C 77% 5.8 mph N9.3 kmh N 5.8 mph9.3 kmh 29.82 in1009.8 mb - 0.00 in0.0 mm 0.00 in0.0 mm
06:45 AM 48.3°F9.1°C 41.4°F5.2°C 77% 4.6 mph NW7.4 kmh NW 4.6 mph7.4 kmh 29.82 in1009.8 mb - 0.00 in0.0 mm 0.00 in0.0 mm
06:40 AM 48.4°F9.1°C 41.5°F5.3°C 77% 3.5 mph NNW5.6 kmh NNW 9.2 mph14.8 kmh 29.82 in1009.8 mb - 0.00 in0.0 mm 0.00 in0.0 mm
06:35 AM 48.4°F9.1°C 41.5°F5.3°C 77% 2.3 mph W3.7 kmh W 9.2 mph14.8 kmh 29.83 in1010.2 mb - 0.00 in0.0 mm 0.00 in0.0 mm
06:30 AM 48.4°F9.1°C 41.5°F5.3°C 77% 3.5 mph NW5.6 kmh NW 4.6 mph7.4 kmh 29.82 in1009.8 mb - 0.00 in0.0 mm 0.00 in0.0 mm
06:25 AM 48.3°F9.1°C 41.4°F5.2°C 77% 3.5 mph NW5.6 kmh NW 6.9 mph11.1 kmh 29.82 in1009.8 mb - 0.00 in0.0 mm 0.00 in0.0 mm
06:20 AM 48.3°F9.1°C 41.8°F5.4°C 78% 1.2 mph NNW1.9 kmh NNW 1.2 mph1.9 kmh 29.82 in1009.8 mb - 0.00 in0.0 mm 0.00 in0.0 mm
06:15 AM 48.3°F9.1°C 41.4°F5.2°C 77% Calm Calm 8.1 mph13.0 kmh 29.82 in1009.8 mb - 0.00 in0.0 mm 0.00 in0.0 mm
06:10 AM 48.3°F9.1°C 41.4°F5.2°C 77% 1.2 mph NW1.9 kmh NW 4.6 mph7.4 kmh 29.81 in1009.5 mb - 0.00 in0.0 mm 0.00 in0.0 mm
06:05 AM 48.3°F9.1°C 41.4°F5.2°C 77% 1.2 mph NNW1.9 kmh NNW 4.6 mph7.4 kmh 29.82 in1009.8 mb - 0.00 in0.0 mm 0.00 in0.0 mm
06:00 AM 48.3°F9.1°C 41.4°F5.2°C 77% 3.5 mph NW5.6 kmh NW 5.8 mph9.3 kmh 29.81 in1009.5 mb - 0.00 in0.0 mm 0.00 in0.0 mm
05:55 AM 48.3°F9.1°C 41.4°F5.2°C 77% 1.2 mph NW1.9 kmh NW 3.5 mph5.6 kmh 29.81 in1009.5 mb - 0.00 in0.0 mm 0.00 in0.0 mm
05:50 AM 48.4°F9.1°C 41.9°F5.5°C 78% Calm Calm -- 29.80 in1009.1 mb - 0.00 in0.0 mm 0.00 in0.0 mm
05:45 AM 48.4°F9.1°C 41.1°F5.1°C 76% 2.3 mph NW3.7 kmh NW 3.5 mph5.6 kmh 29.80 in1009.1 mb - 0.00 in0.0 mm 0.00 in0.0 mm
05:40 AM 48.4°F9.1°C 41.5°F5.3°C 77% 1.2 mph WNW1.9 kmh WNW 2.3 mph3.7 kmh 29.80 in1009.1 mb - 0.00 in0.0 mm 0.00 in0.0 mm
05:35 AM 48.5°F9.2°C 41.2°F5.1°C 76% 1.2 mph NW1.9 kmh NW 4.6 mph7.4 kmh 29.80 in1009.1 mb - 0.00 in0.0 mm 0.00 in0.0 mm
05:30 AM 48.5°F9.2°C 41.6°F5.3°C 77% 3.5 mph NW5.6 kmh NW 5.8 mph9.3 kmh 29.80 in1009.1 mb - 0.00 in0.0 mm 0.00 in0.0 mm
05:25 AM 48.6°F9.2°C 41.4°F5.2°C 76% Calm Calm -- 29.80 in1009.1 mb - 0.00 in0.0 mm 0.00 in0.0 mm
05:20 AM 48.6°F9.2°C 41.4°F5.2°C 76% 4.6 mph NW7.4 kmh NW 12.7 mph20.4 kmh 29.80 in1009.1 mb - 0.00 in0.0 mm 0.00 in0.0 mm
05:15 AM 48.6°F9.2°C 41.4°F5.2°C 76% 1.2 mph WSW1.9 kmh WSW 8.1 mph13.0 kmh 29.80 in1009.1 mb - 0.00 in0.0 mm 0.00 in0.0 mm
05:10 AM 48.6°F9.2°C 41.4°F5.2°C 76% 1.2 mph W1.9 kmh W 4.6 mph7.4 kmh 29.79 in1008.8 mb - 0.00 in0.0 mm 0.00 in0.0 mm
05:05 AM 48.6°F9.2°C 41.7°F5.4°C 77% Calm Calm 3.5 mph5.6 kmh 29.79 in1008.8 mb - 0.00 in0.0 mm 0.00 in0.0 mm
05:00 AM 48.5°F9.2°C 41.6°F5.3°C 77% Calm Calm 1.2 mph1.9 kmh 29.80 in1009.1 mb - 0.00 in0.0 mm 0.00 in0.0 mm
04:55 AM 48.5°F9.2°C 41.6°F5.3°C 77% Calm Calm -- 29.79 in1008.8 mb - 0.00 in0.0 mm 0.00 in0.0 mm
04:50 AM 48.5°F9.2°C 41.6°F5.3°C 77% 1.2 mph N1.9 kmh N 4.6 mph7.4 kmh 29.79 in1008.8 mb - 0.00 in0.0 mm 0.00 in0.0 mm
04:45 AM 48.5°F9.2°C 41.6°F5.3°C 77% 3.5 mph NW5.6 kmh NW 5.8 mph9.3 kmh 29.78 in1008.5 mb - 0.00 in0.0 mm 0.00 in0.0 mm
04:40 AM 48.5°F9.2°C 41.6°F5.3°C 77% 1.2 mph NW1.9 kmh NW 3.5 mph5.6 kmh 29.78 in1008.5 mb - 0.00 in0.0 mm 0.00 in0.0 mm
04:35 AM 48.5°F9.2°C 41.9°F5.5°C 78% Calm Calm 5.8 mph9.3 kmh 29.78 in1008.5 mb - 0.00 in0.0 mm 0.00 in0.0 mm
04:30 AM 48.4°F9.1°C 41.9°F5.5°C 78% 1.2 mph NW1.9 kmh NW 6.9 mph11.1 kmh 29.78 in1008.5 mb - 0.00 in0.0 mm 0.00 in0.0 mm
04:25 AM 48.3°F9.1°C 41.8°F5.4°C 78% 2.3 mph NW3.7 kmh NW 4.6 mph7.4 kmh 29.78 in1008.5 mb - 0.00 in0.0 mm 0.00 in0.0 mm
04:20 AM 48.2°F9.0°C 41.7°F5.4°C 78% Calm Calm 3.5 mph5.6 kmh 29.77 in1008.1 mb - 0.00 in0.0 mm 0.00 in0.0 mm
04:15 AM 48.2°F9.0°C 42.0°F5.6°C 79% 1.2 mph NW1.9 kmh NW 5.8 mph9.3 kmh 29.77 in1008.1 mb - 0.00 in0.0 mm 0.00 in0.0 mm
04:10 AM 48.2°F9.0°C 41.7°F5.4°C 78% Calm Calm -- 29.78 in1008.5 mb - 0.00 in0.0 mm 0.00 in0.0 mm
04:05 AM 48.1°F8.9°C 41.6°F5.3°C 78% 1.2 mph NW1.9 kmh NW 3.5 mph5.6 kmh 29.77 in1008.1 mb - 0.00 in0.0 mm 0.00 in0.0 mm
04:00 AM 48.2°F9.0°C 42.0°F5.6°C 79% Calm Calm -- 29.77 in1008.1 mb - 0.00 in0.0 mm 0.00 in0.0 mm
03:55 AM 48.1°F8.9°C 41.6°F5.3°C 78% 3.5 mph NNW5.6 kmh NNW 5.8 mph9.3 kmh 29.76 in1007.8 mb - 0.00 in0.0 mm 0.00 in0.0 mm
03:50 AM 48.0°F8.9°C 41.8°F5.4°C 79% 1.2 mph NW1.9 kmh NW 8.1 mph13.0 kmh 29.76 in1007.8 mb - 0.00 in0.0 mm 0.00 in0.0 mm
03:45 AM 48.0°F8.9°C 41.8°F5.4°C 79% Calm Calm 2.3 mph3.7 kmh 29.76 in1007.8 mb - 0.00 in0.0 mm 0.00 in0.0 mm
03:40 AM 48.0°F8.9°C 41.8°F5.4°C 79% Calm Calm 2.3 mph3.7 kmh 29.75 in1007.5 mb - 0.00 in0.0 mm 0.00 in0.0 mm
03:35 AM 48.1°F8.9°C 41.9°F5.5°C 79% Calm Calm 4.6 mph7.4 kmh 29.76 in1007.8 mb - 0.00 in0.0 mm 0.00 in0.0 mm
03:30 AM 48.1°F8.9°C 41.9°F5.5°C 79% Calm Calm 2.3 mph3.7 kmh 29.75 in1007.5 mb - 0.00 in0.0 mm 0.00 in0.0 mm
03:25 AM 48.2°F9.0°C 42.0°F5.6°C 79% Calm Calm -- 29.76 in1007.8 mb - 0.00 in0.0 mm 0.00 in0.0 mm
03:20 AM 48.1°F8.9°C 41.9°F5.5°C 79% 2.3 mph NNW3.7 kmh NNW 3.5 mph5.6 kmh 29.76 in1007.8 mb - 0.00 in0.0 mm 0.00 in0.0 mm
03:15 AM 48.1°F8.9°C 41.9°F5.5°C 79% Calm Calm 2.3 mph3.7 kmh 29.76 in1007.8 mb - 0.00 in0.0 mm 0.00 in0.0 mm
03:10 AM 48.1°F8.9°C 41.9°F5.5°C 79% Calm Calm -- 29.76 in1007.8 mb - 0.00 in0.0 mm 0.00 in0.0 mm
03:05 AM 48.1°F8.9°C 41.9°F5.5°C 79% 3.5 mph NNW5.6 kmh NNW 6.9 mph11.1 kmh 29.76 in1007.8 mb - 0.00 in0.0 mm 0.00 in0.0 mm
03:00 AM 48.3°F9.1°C 42.1°F5.6°C 79% Calm Calm 2.3 mph3.7 kmh 29.76 in1007.8 mb - 0.00 in0.0 mm 0.00 in0.0 mm
02:55 AM 48.3°F9.1°C 42.1°F5.6°C 79% Calm Calm -- 29.76 in1007.8 mb - 0.00 in0.0 mm 0.00 in0.0 mm
02:50 AM 48.4°F9.1°C 42.2°F5.7°C 79% 1.2 mph WSW1.9 kmh WSW 2.3 mph3.7 kmh 29.76 in1007.8 mb - 0.00 in0.0 mm 0.00 in0.0 mm
02:45 AM 48.4°F9.1°C 42.2°F5.7°C 79% 1.2 mph SSW1.9 kmh SSW -- 29.76 in1007.8 mb - 0.00 in0.0 mm 0.00 in0.0 mm
02:40 AM 48.3°F9.1°C 42.1°F5.6°C 79% Calm Calm 5.8 mph9.3 kmh 29.76 in1007.8 mb - 0.00 in0.0 mm 0.00 in0.0 mm
02:35 AM 48.3°F9.1°C 42.1°F5.6°C 79% Calm Calm 2.3 mph3.7 kmh 29.76 in1007.8 mb - 0.00 in0.0 mm 0.00 in0.0 mm
02:30 AM 48.2°F9.0°C 42.3°F5.7°C 80% 1.2 mph SSW1.9 kmh SSW 3.5 mph5.6 kmh 29.76 in1007.8 mb - 0.00 in0.0 mm 0.00 in0.0 mm
02:25 AM 48.2°F9.0°C 42.3°F5.7°C 80% Calm Calm -- 29.75 in1007.5 mb - 0.00 in0.0 mm 0.00 in0.0 mm
02:20 AM 48.2°F9.0°C 42.3°F5.7°C 80% Calm Calm 4.6 mph7.4 kmh 29.75 in1007.5 mb - 0.00 in0.0 mm 0.00 in0.0 mm
02:15 AM 48.2°F9.0°C 42.0°F5.6°C 79% Calm Calm -- 29.75 in1007.5 mb - 0.00 in0.0 mm 0.00 in0.0 mm
02:10 AM 48.1°F8.9°C 42.2°F5.7°C 80% Calm Calm -- 29.75 in1007.5 mb - 0.00 in0.0 mm 0.00 in0.0 mm
02:05 AM 48.0°F8.9°C 42.1°F5.6°C 80% Calm Calm -- 29.75 in1007.5 mb - 0.00 in0.0 mm 0.00 in0.0 mm
02:00 AM 48.0°F8.9°C 42.1°F5.6°C 80% Calm Calm 2.3 mph3.7 kmh 29.75 in1007.5 mb - 0.00 in0.0 mm 0.00 in0.0 mm
01:55 AM 48.0°F8.9°C 42.1°F5.6°C 80% Calm Calm -- 29.75 in1007.5 mb - 0.00 in0.0 mm 0.00 in0.0 mm
01:50 AM 48.1°F8.9°C 42.2°F5.7°C 80% 2.3 mph NW3.7 kmh NW 4.6 mph7.4 kmh 29.75 in1007.5 mb - 0.00 in0.0 mm 0.00 in0.0 mm
01:45 AM 48.1°F8.9°C 42.2°F5.7°C 80% Calm Calm -- 29.75 in1007.5 mb - 0.00 in0.0 mm 0.00 in0.0 mm
01:40 AM 48.1°F8.9°C 42.2°F5.7°C 80% 2.3 mph W3.7 kmh W 5.8 mph9.3 kmh 29.74 in1007.1 mb - 0.00 in0.0 mm 0.00 in0.0 mm
01:35 AM 48.0°F8.9°C 42.1°F5.6°C 80% 1.2 mph WNW1.9 kmh WNW 3.5 mph5.6 kmh 29.74 in1007.1 mb - 0.00 in0.0 mm 0.00 in0.0 mm
01:30 AM 48.0°F8.9°C 42.1°F5.6°C 80% Calm Calm 2.3 mph3.7 kmh 29.74 in1007.1 mb - 0.00 in0.0 mm 0.00 in0.0 mm
01:25 AM 48.1°F8.9°C 42.2°F5.7°C 80% 2.3 mph W3.7 kmh W 3.5 mph5.6 kmh 29.74 in1007.1 mb - 0.00 in0.0 mm 0.00 in0.0 mm
01:20 AM 48.3°F9.1°C 42.1°F5.6°C 79% Calm Calm -- 29.74 in1007.1 mb - 0.00 in0.0 mm 0.00 in0.0 mm
01:15 AM 48.4°F9.1°C 42.2°F5.7°C 79% Calm Calm -- 29.74 in1007.1 mb - 0.00 in0.0 mm 0.00 in0.0 mm
01:10 AM 48.4°F9.1°C 42.2°F5.7°C 79% Calm Calm 5.8 mph9.3 kmh 29.74 in1007.1 mb - 0.00 in0.0 mm 0.00 in0.0 mm
01:05 AM 48.5°F9.2°C 42.3°F5.7°C 79% 1.2 mph NW1.9 kmh NW 3.5 mph5.6 kmh 29.74 in1007.1 mb - 0.00 in0.0 mm 0.00 in0.0 mm
01:00 AM 48.6°F9.2°C 42.7°F5.9°C 80% 1.2 mph NW1.9 kmh NW 5.8 mph9.3 kmh 29.74 in1007.1 mb - 0.00 in0.0 mm 0.00 in0.0 mm
12:55 AM 48.6°F9.2°C 42.7°F5.9°C 80% 4.6 mph WNW7.4 kmh WNW 11.5 mph18.5 kmh 29.74 in1007.1 mb - 0.00 in0.0 mm 0.00 in0.0 mm
12:50 AM 48.5°F9.2°C 42.6°F5.9°C 80% 1.2 mph NW1.9 kmh NW 3.5 mph5.6 kmh 29.74 in1007.1 mb - 0.00 in0.0 mm 0.00 in0.0 mm
12:45 AM 48.3°F9.1°C 42.4°F5.8°C 80% 3.5 mph WNW5.6 kmh WNW 6.9 mph11.1 kmh 29.74 in1007.1 mb - 0.00 in0.0 mm 0.00 in0.0 mm
12:40 AM 48.2°F9.0°C 42.3°F5.7°C 80% 2.3 mph NW3.7 kmh NW 4.6 mph7.4 kmh 29.74 in1007.1 mb - 0.00 in0.0 mm 0.00 in0.0 mm
12:35 AM 48.2°F9.0°C 42.3°F5.7°C 80% Calm Calm -- 29.73 in1006.8 mb - 0.00 in0.0 mm 0.00 in0.0 mm
12:30 AM 48.2°F9.0°C 42.3°F5.7°C 80% 1.2 mph NW1.9 kmh NW -- 29.73 in1006.8 mb - 0.00 in0.0 mm 0.00 in0.0 mm
12:25 AM 48.3°F9.1°C 42.1°F5.6°C 79% 1.2 mph NW1.9 kmh NW 2.3 mph3.7 kmh 29.73 in1006.8 mb - 0.00 in0.0 mm 0.00 in0.0 mm
12:20 AM 48.5°F9.2°C 42.3°F5.7°C 79% 1.2 mph NW1.9 kmh NW 3.5 mph5.6 kmh 29.73 in1006.8 mb - 0.00 in0.0 mm 0.00 in0.0 mm
12:15 AM 48.7°F9.3°C 42.5°F5.8°C 79% Calm Calm -- 29.73 in1006.8 mb - 0.00 in0.0 mm 0.00 in0.0 mm
12:10 AM 48.9°F9.4°C 42.4°F5.8°C 78% 1.2 mph NW1.9 kmh NW 1.2 mph1.9 kmh 29.73 in1006.8 mb - 0.00 in0.0 mm 0.00 in0.0 mm
12:05 AM 49.2°F9.6°C 42.3°F5.7°C 77% Calm Calm 3.5 mph5.6 kmh 29.73 in1006.8 mb - 0.00 in0.0 mm 0.00 in0.0 mm
12:00 AM 49.3°F9.6°C 42.7°F5.9°C 78% 2.3 mph NW3.7 kmh NW 11.5 mph18.5 kmh 29.73 in1006.8 mb - 0.00 in0.0 mm 0.00 in0.0 mm